METAR Data
IDs: Format: Raw Decoded Include TAF

Data at: 0413 UTC 18 Jan 2022

PHNL 180353Z 15004KT 10SM FEW022 24/18 A2990 RMK AO2 SLP124 T02440178
PHNL 180253Z 19003KT 10SM FEW042 25/18 A2989 RMK AO2 SLP122 T02500178 55009

PHNL 180305Z 1803/1906 18008KT P6SM FEW025 SCT045
  FM180400 VRB04KT P6SM FEW025 SCT045
  FM180900 35004KT P6SM SKC
  FM182100 17008KT P6SM FEW025 SCT050


PHOG 180354Z 32004KT 10SM FEW035 SCT055 26/18 A2989 RMK AO2 SLP128 T02560178
PHOG 180254Z 34005KT 10SM FEW035 SCT055 27/17 A2989 RMK AO2 SLP126 T02720172 56012

PHOG 172333Z 1800/1824 36011KT P6SM FEW030
  FM180600 13005KT P6SM FEW030
  FM182100 03008KT P6SM FEW025 SCT050


PHKO 180353Z 24006KT 10SM SCT040 26/19 A2990 RMK AO2 SLP125 T02560194 $
PHKO 180253Z 25006KT 10SM FEW055 26/19 A2990 RMK AO2 SLP123 T02610194 55008 $

PHKO 172333Z 1800/1824 28009KT P6SM FEW050
  FM180400 10005KT P6SM SCT040
  FM180600 VRB06KT P6SM SKC
  FM182000 25008KT P6SM FEW050


PHTO 180353Z 13007KT 10SM FEW060 24/20 A2992 RMK AO2 SLP130 T02390200
PHTO 180253Z 13009KT 10SM FEW021 26/19 A2991 RMK AO2 SLP128 T02560194 55006

PHTO 172333Z 1800/1824 11009KT P6SM FEW025 BKN045
  FM180600 22005KT P6SM FEW025
  FM182100 13008KT P6SM SCT025 BKN050


PHLI 180353Z 18006KT 10SM SCT038 23/19 A2991 RMK AO2 SLP125 T02330194 $
PHLI 180253Z 17009KT 10SM CLR 25/19 A2990 RMK AO2 SLP123 T02500194 55008 $

PHLI 172333Z 1800/1824 16007KT P6SM VCSH FEW025 SCT050
  FM180300 VRB05KT P6SM FEW025 SCT050
  FM180900 26005KT P6SM BKN040
  FM182000 15007KT P6SM FEW025 SCT050